sensor_id;sensor_type;location;lat;lon;timestamp;P1;durP1;ratioP1;P2;durP2;ratioP2
23222;SDS011;11780;13.904;100.620;2024-01-30T00:02:07;39.05;;;31.25;;
23222;SDS011;11780;13.904;100.620;2024-01-30T00:04:38;40.67;;;33.33;;
23222;SDS011;11780;13.904;100.620;2024-01-30T00:10:17;33.30;;;29.58;;
23222;SDS011;11780;13.904;100.620;2024-01-30T00:12:48;40.33;;;30.70;;
23222;SDS011;11780;13.904;100.620;2024-01-30T00:15:18;35.33;;;29.07;;
23222;SDS011;11780;13.904;100.620;2024-01-30T00:17:49;37.63;;;30.23;;
23222;SDS011;11780;13.904;100.620;2024-01-30T00:20:21;35.35;;;28.88;;
23222;SDS011;11780;13.904;100.620;2024-01-30T00:22:52;34.35;;;28.48;;
23222;SDS011;11780;13.904;100.620;2024-01-30T00:25:22;32.25;;;28.80;;
23222;SDS011;11780;13.904;100.620;2024-01-30T00:27:53;35.10;;;28.13;;
23222;SDS011;11780;13.904;100.620;2024-01-30T00:30:23;33.97;;;27.23;;
23222;SDS011;11780;13.904;100.620;2024-01-30T00:32:53;34.00;;;28.60;;
23222;SDS011;11780;13.904;100.620;2024-01-30T00:35:24;32.77;;;28.33;;
23222;SDS011;11780;13.904;100.620;2024-01-30T00:37:54;35.55;;;28.73;;
23222;SDS011;11780;13.904;100.620;2024-01-30T00:40:25;31.65;;;26.98;;
23222;SDS011;11780;13.904;100.620;2024-01-30T00:42:55;29.23;;;26.23;;
23222;SDS011;11780;13.904;100.620;2024-01-30T00:45:26;32.70;;;26.48;;
23222;SDS011;11780;13.904;100.620;2024-01-30T00:47:56;34.97;;;27.58;;
23222;SDS011;11780;13.904;100.620;2024-01-30T00:50:27;33.07;;;27.07;;
23222;SDS011;11780;13.904;100.620;2024-01-30T00:52:57;29.35;;;25.60;;
23222;SDS011;11780;13.904;100.620;2024-01-30T00:55:28;33.77;;;27.60;;
23222;SDS011;11780;13.904;100.620;2024-01-30T00:57:58;30.77;;;26.67;;
23222;SDS011;11780;13.904;100.620;2024-01-30T01:00:28;34.00;;;27.58;;
23222;SDS011;11780;13.904;100.620;2024-01-30T01:02:59;33.33;;;27.50;;
23222;SDS011;11780;13.904;100.620;2024-01-30T01:05:29;31.88;;;26.77;;
23222;SDS011;11780;13.904;100.620;2024-01-30T01:08:00;30.05;;;26.58;;
23222;SDS011;11780;13.904;100.620;2024-01-30T01:10:30;32.50;;;25.95;;
23222;SDS011;11780;13.904;100.620;2024-01-30T01:13:00;35.33;;;24.70;;
23222;SDS011;11780;13.904;100.620;2024-01-30T01:15:30;32.95;;;25.33;;
23222;SDS011;11780;13.904;100.620;2024-01-30T01:18:01;30.88;;;26.23;;
23222;SDS011;11780;13.904;100.620;2024-01-30T01:20:31;31.23;;;26.47;;
23222;SDS011;11780;13.904;100.620;2024-01-30T01:23:02;31.10;;;24.73;;
23222;SDS011;11780;13.904;100.620;2024-01-30T01:25:33;28.02;;;24.90;;
23222;SDS011;11780;13.904;100.620;2024-01-30T01:28:03;29.42;;;25.77;;
23222;SDS011;11780;13.904;100.620;2024-01-30T01:30:34;31.83;;;25.52;;
23222;SDS011;11780;13.904;100.620;2024-01-30T01:33:05;31.92;;;26.00;;
23222;SDS011;11780;13.904;100.620;2024-01-30T01:38:06;34.75;;;25.45;;
23222;SDS011;11780;13.904;100.620;2024-01-30T01:40:36;28.85;;;24.35;;
23222;SDS011;11780;13.904;100.620;2024-01-30T01:43:09;30.20;;;24.77;;
23222;SDS011;11780;13.904;100.620;2024-01-30T01:45:39;35.70;;;28.63;;
23222;SDS011;11780;13.904;100.620;2024-01-30T01:48:09;34.90;;;26.13;;
23222;SDS011;11780;13.904;100.620;2024-01-30T01:50:41;30.98;;;25.38;;
23222;SDS011;11780;13.904;100.620;2024-01-30T01:53:12;29.17;;;26.08;;
23222;SDS011;11780;13.904;100.620;2024-01-30T01:55:45;31.40;;;26.15;;
23222;SDS011;11780;13.904;100.620;2024-01-30T01:58:16;31.38;;;27.55;;
23222;SDS011;11780;13.904;100.620;2024-01-30T02:00:50;30.63;;;27.25;;
23222;SDS011;11780;13.904;100.620;2024-01-30T02:03:21;31.13;;;26.33;;
23222;SDS011;11780;13.904;100.620;2024-01-30T02:05:51;30.77;;;26.63;;
23222;SDS011;11780;13.904;100.620;2024-01-30T02:08:22;31.75;;;26.52;;
23222;SDS011;11780;13.904;100.620;2024-01-30T02:10:54;31.92;;;27.85;;
23222;SDS011;11780;13.904;100.620;2024-01-30T02:13:24;34.60;;;28.43;;
23222;SDS011;11780;13.904;100.620;2024-01-30T02:15:55;35.33;;;27.23;;
23222;SDS011;11780;13.904;100.620;2024-01-30T02:18:25;30.65;;;27.33;;
23222;SDS011;11780;13.904;100.620;2024-01-30T02:20:56;34.03;;;28.13;;
23222;SDS011;11780;13.904;100.620;2024-01-30T02:23:31;41.67;;;30.80;;
23222;SDS011;11780;13.904;100.620;2024-01-30T02:26:03;34.88;;;29.33;;
23222;SDS011;11780;13.904;100.620;2024-01-30T02:28:33;32.33;;;28.57;;
23222;SDS011;11780;13.904;100.620;2024-01-30T02:31:04;42.45;;;30.90;;
23222;SDS011;11780;13.904;100.620;2024-01-30T02:33:34;34.95;;;30.67;;
23222;SDS011;11780;13.904;100.620;2024-01-30T02:36:05;34.72;;;31.08;;
23222;SDS011;11780;13.904;100.620;2024-01-30T02:38:35;32.37;;;28.93;;
23222;SDS011;11780;13.904;100.620;2024-01-30T02:41:06;33.75;;;30.15;;
23222;SDS011;11780;13.904;100.620;2024-01-30T02:43:36;36.83;;;29.10;;
23222;SDS011;11780;13.904;100.620;2024-01-30T02:46:06;32.60;;;29.02;;
23222;SDS011;11780;13.904;100.620;2024-01-30T02:48:36;32.35;;;28.73;;
23222;SDS011;11780;13.904;100.620;2024-01-30T02:51:08;32.55;;;29.05;;
23222;SDS011;11780;13.904;100.620;2024-01-30T02:53:38;32.28;;;27.50;;
23222;SDS011;11780;13.904;100.620;2024-01-30T02:56:09;34.42;;;28.42;;
23222;SDS011;11780;13.904;100.620;2024-01-30T02:58:39;32.17;;;27.33;;
23222;SDS011;11780;13.904;100.620;2024-01-30T03:01:10;33.83;;;29.23;;
23222;SDS011;11780;13.904;100.620;2024-01-30T03:03:40;34.10;;;28.00;;
23222;SDS011;11780;13.904;100.620;2024-01-30T03:06:12;37.60;;;28.70;;
23222;SDS011;11780;13.904;100.620;2024-01-30T03:08:45;31.77;;;28.23;;
23222;SDS011;11780;13.904;100.620;2024-01-30T03:11:15;31.50;;;27.13;;
23222;SDS011;11780;13.904;100.620;2024-01-30T03:13:46;30.55;;;27.38;;
23222;SDS011;11780;13.904;100.620;2024-01-30T03:16:16;29.90;;;26.88;;
23222;SDS011;11780;13.904;100.620;2024-01-30T03:18:47;33.47;;;26.95;;
23222;SDS011;11780;13.904;100.620;2024-01-30T03:21:18;32.70;;;25.77;;
23222;SDS011;11780;13.904;100.620;2024-01-30T03:23:48;32.55;;;27.33;;
23222;SDS011;11780;13.904;100.620;2024-01-30T03:26:18;29.70;;;26.52;;
23222;SDS011;11780;13.904;100.620;2024-01-30T03:28:48;37.35;;;28.05;;
23222;SDS011;11780;13.904;100.620;2024-01-30T03:31:19;31.52;;;26.48;;
23222;SDS011;11780;13.904;100.620;2024-01-30T03:33:49;32.17;;;27.90;;
23222;SDS011;11780;13.904;100.620;2024-01-30T03:36:20;29.53;;;26.30;;
23222;SDS011;11780;13.904;100.620;2024-01-30T03:38:50;33.28;;;26.90;;
23222;SDS011;11780;13.904;100.620;2024-01-30T03:41:21;33.97;;;27.50;;
23222;SDS011;11780;13.904;100.620;2024-01-30T03:43:51;29.73;;;26.40;;
23222;SDS011;11780;13.904;100.620;2024-01-30T03:46:21;29.25;;;25.55;;
23222;SDS011;11780;13.904;100.620;2024-01-30T03:48:51;29.02;;;25.90;;
23222;SDS011;11780;13.904;100.620;2024-01-30T03:51:22;30.80;;;26.93;;
23222;SDS011;11780;13.904;100.620;2024-01-30T03:53:53;30.55;;;26.75;;
23222;SDS011;11780;13.904;100.620;2024-01-30T03:56:23;31.35;;;27.20;;
23222;SDS011;11780;13.904;100.620;2024-01-30T03:58:55;31.25;;;28.08;;
23222;SDS011;11780;13.904;100.620;2024-01-30T04:01:26;30.40;;;26.63;;
23222;SDS011;11780;13.904;100.620;2024-01-30T04:03:57;29.23;;;26.23;;
23222;SDS011;11780;13.904;100.620;2024-01-30T04:06:27;30.77;;;27.37;;
23222;SDS011;11780;13.904;100.620;2024-01-30T04:08:57;30.25;;;27.10;;
23222;SDS011;11780;13.904;100.620;2024-01-30T04:11:28;29.48;;;26.35;;
23222;SDS011;11780;13.904;100.620;2024-01-30T04:13:58;29.58;;;26.38;;
23222;SDS011;11780;13.904;100.620;2024-01-30T04:16:28;33.38;;;27.52;;
23222;SDS011;11780;13.904;100.620;2024-01-30T04:18:59;31.33;;;28.05;;
23222;SDS011;11780;13.904;100.620;2024-01-30T04:21:30;33.28;;;28.95;;
23222;SDS011;11780;13.904;100.620;2024-01-30T04:24:00;31.48;;;28.10;;
23222;SDS011;11780;13.904;100.620;2024-01-30T04:26:31;33.50;;;29.95;;
23222;SDS011;11780;13.904;100.620;2024-01-30T04:29:01;30.45;;;27.30;;
23222;SDS011;11780;13.904;100.620;2024-01-30T04:31:32;32.55;;;28.90;;
23222;SDS011;11780;13.904;100.620;2024-01-30T04:34:02;35.50;;;28.73;;
23222;SDS011;11780;13.904;100.620;2024-01-30T04:36:33;31.73;;;28.63;;
23222;SDS011;11780;13.904;100.620;2024-01-30T04:39:04;33.20;;;28.20;;
23222;SDS011;11780;13.904;100.620;2024-01-30T04:41:34;32.95;;;27.10;;
23222;SDS011;11780;13.904;100.620;2024-01-30T04:44:04;31.88;;;27.80;;
23222;SDS011;11780;13.904;100.620;2024-01-30T04:46:35;30.45;;;27.38;;
23222;SDS011;11780;13.904;100.620;2024-01-30T04:49:05;32.13;;;28.67;;
23222;SDS011;11780;13.904;100.620;2024-01-30T04:51:37;35.78;;;27.70;;
23222;SDS011;11780;13.904;100.620;2024-01-30T04:54:07;30.15;;;26.83;;
23222;SDS011;11780;13.904;100.620;2024-01-30T04:56:38;30.93;;;26.80;;
23222;SDS011;11780;13.904;100.620;2024-01-30T04:59:09;30.85;;;27.70;;
23222;SDS011;11780;13.904;100.620;2024-01-30T05:01:39;30.98;;;27.75;;
23222;SDS011;11780;13.904;100.620;2024-01-30T05:04:10;30.67;;;27.60;;
23222;SDS011;11780;13.904;100.620;2024-01-30T05:06:43;33.88;;;27.33;;
23222;SDS011;11780;13.904;100.620;2024-01-30T05:09:14;31.38;;;28.08;;
23222;SDS011;11780;13.904;100.620;2024-01-30T05:11:45;31.42;;;28.30;;
23222;SDS011;11780;13.904;100.620;2024-01-30T05:14:15;30.50;;;27.23;;
23222;SDS011;11780;13.904;100.620;2024-01-30T05:16:46;30.87;;;27.13;;
23222;SDS011;11780;13.904;100.620;2024-01-30T05:19:16;30.33;;;27.10;;
23222;SDS011;11780;13.904;100.620;2024-01-30T05:21:47;33.93;;;28.27;;
23222;SDS011;11780;13.904;100.620;2024-01-30T05:24:17;31.65;;;28.27;;
23222;SDS011;11780;13.904;100.620;2024-01-30T05:26:50;31.90;;;28.42;;
23222;SDS011;11780;13.904;100.620;2024-01-30T05:29:20;29.70;;;25.92;;
23222;SDS011;11780;13.904;100.620;2024-01-30T05:31:51;29.88;;;26.75;;
23222;SDS011;11780;13.904;100.620;2024-01-30T05:34:21;30.08;;;27.00;;
23222;SDS011;11780;13.904;100.620;2024-01-30T05:36:52;29.80;;;26.13;;
23222;SDS011;11780;13.904;100.620;2024-01-30T05:39:22;30.38;;;26.80;;
23222;SDS011;11780;13.904;100.620;2024-01-30T05:41:52;31.02;;;26.48;;
23222;SDS011;11780;13.904;100.620;2024-01-30T05:44:22;30.33;;;26.95;;
23222;SDS011;11780;13.904;100.620;2024-01-30T05:46:53;28.15;;;25.17;;
23222;SDS011;11780;13.904;100.620;2024-01-30T05:49:23;29.10;;;26.10;;
23222;SDS011;11780;13.904;100.620;2024-01-30T05:51:53;29.20;;;26.08;;
23222;SDS011;11780;13.904;100.620;2024-01-30T05:54:24;29.88;;;26.88;;
23222;SDS011;11780;13.904;100.620;2024-01-30T05:56:54;29.27;;;26.13;;
23222;SDS011;11780;13.904;100.620;2024-01-30T05:59:25;28.55;;;25.65;;
23222;SDS011;11780;13.904;100.620;2024-01-30T06:01:55;28.58;;;25.27;;
23222;SDS011;11780;13.904;100.620;2024-01-30T06:04:26;28.70;;;25.80;;
23222;SDS011;11780;13.904;100.620;2024-01-30T06:06:56;28.98;;;26.05;;
23222;SDS011;11780;13.904;100.620;2024-01-30T06:09:27;28.37;;;25.37;;
23222;SDS011;11780;13.904;100.620;2024-01-30T06:11:58;27.85;;;24.85;;
23222;SDS011;11780;13.904;100.620;2024-01-30T06:14:28;28.65;;;25.77;;
23222;SDS011;11780;13.904;100.620;2024-01-30T06:16:59;26.97;;;24.23;;
23222;SDS011;11780;13.904;100.620;2024-01-30T06:19:30;28.02;;;24.63;;
23222;SDS011;11780;13.904;100.620;2024-01-30T06:22:00;28.70;;;25.77;;
23222;SDS011;11780;13.904;100.620;2024-01-30T06:24:31;28.03;;;24.97;;
23222;SDS011;11780;13.904;100.620;2024-01-30T06:27:01;27.53;;;24.77;;
23222;SDS011;11780;13.904;100.620;2024-01-30T06:29:32;27.90;;;25.03;;
23222;SDS011;11780;13.904;100.620;2024-01-30T06:32:02;27.80;;;24.70;;
23222;SDS011;11780;13.904;100.620;2024-01-30T06:34:33;27.33;;;24.70;;
23222;SDS011;11780;13.904;100.620;2024-01-30T06:37:04;28.23;;;25.43;;
23222;SDS011;11780;13.904;100.620;2024-01-30T06:39:35;27.70;;;24.70;;
23222;SDS011;11780;13.904;100.620;2024-01-30T06:42:05;27.27;;;24.58;;
23222;SDS011;11780;13.904;100.620;2024-01-30T06:44:35;25.67;;;23.25;;
23222;SDS011;11780;13.904;100.620;2024-01-30T06:47:06;26.02;;;23.45;;
23222;SDS011;11780;13.904;100.620;2024-01-30T06:49:36;26.17;;;23.60;;
23222;SDS011;11780;13.904;100.620;2024-01-30T06:52:08;27.92;;;24.92;;
23222;SDS011;11780;13.904;100.620;2024-01-30T06:54:38;28.73;;;24.13;;
23222;SDS011;11780;13.904;100.620;2024-01-30T06:57:09;26.10;;;23.47;;
23222;SDS011;11780;13.904;100.620;2024-01-30T06:59:41;27.02;;;24.35;;
23222;SDS011;11780;13.904;100.620;2024-01-30T07:02:13;26.15;;;23.30;;
23222;SDS011;11780;13.904;100.620;2024-01-30T07:04:43;29.67;;;23.20;;
23222;SDS011;11780;13.904;100.620;2024-01-30T07:07:14;26.75;;;24.23;;
23222;SDS011;11780;13.904;100.620;2024-01-30T07:09:45;27.07;;;23.83;;
23222;SDS011;11780;13.904;100.620;2024-01-30T07:12:17;26.77;;;23.65;;
23222;SDS011;11780;13.904;100.620;2024-01-30T07:14:47;28.00;;;24.73;;
23222;SDS011;11780;13.904;100.620;2024-01-30T07:17:18;27.50;;;24.70;;
23222;SDS011;11780;13.904;100.620;2024-01-30T07:19:48;27.70;;;24.52;;
23222;SDS011;11780;13.904;100.620;2024-01-30T07:22:19;27.30;;;24.40;;
23222;SDS011;11780;13.904;100.620;2024-01-30T07:24:49;27.80;;;23.50;;
23222;SDS011;11780;13.904;100.620;2024-01-30T07:27:21;26.83;;;24.00;;
23222;SDS011;11780;13.904;100.620;2024-01-30T07:29:51;26.70;;;23.55;;
23222;SDS011;11780;13.904;100.620;2024-01-30T07:32:22;27.60;;;24.10;;
23222;SDS011;11780;13.904;100.620;2024-01-30T07:34:53;26.98;;;24.08;;
23222;SDS011;11780;13.904;100.620;2024-01-30T07:40:05;25.50;;;22.85;;
23222;SDS011;11780;13.904;100.620;2024-01-30T07:42:36;26.98;;;24.25;;
23222;SDS011;11780;13.904;100.620;2024-01-30T07:45:09;26.00;;;23.35;;
23222;SDS011;11780;13.904;100.620;2024-01-30T07:47:39;26.30;;;22.93;;
23222;SDS011;11780;13.904;100.620;2024-01-30T07:50:10;26.40;;;23.53;;
23222;SDS011;11780;13.904;100.620;2024-01-30T07:52:41;26.33;;;23.73;;
23222;SDS011;11780;13.904;100.620;2024-01-30T07:57:42;27.38;;;24.52;;
23222;SDS011;11780;13.904;100.620;2024-01-30T08:00:12;26.10;;;23.42;;
23222;SDS011;11780;13.904;100.620;2024-01-30T08:02:43;26.75;;;23.88;;
23222;SDS011;11780;13.904;100.620;2024-01-30T08:05:13;26.00;;;23.02;;
23222;SDS011;11780;13.904;100.620;2024-01-30T08:07:44;25.88;;;23.15;;
23222;SDS011;11780;13.904;100.620;2024-01-30T08:10:15;26.85;;;24.02;;
23222;SDS011;11780;13.904;100.620;2024-01-30T08:12:48;26.55;;;23.75;;
23222;SDS011;11780;13.904;100.620;2024-01-30T08:15:18;26.25;;;23.52;;
23222;SDS011;11780;13.904;100.620;2024-01-30T08:17:49;25.73;;;23.05;;
23222;SDS011;11780;13.904;100.620;2024-01-30T08:20:25;26.30;;;23.70;;
23222;SDS011;11780;13.904;100.620;2024-01-30T08:22:55;27.70;;;23.65;;
23222;SDS011;11780;13.904;100.620;2024-01-30T08:25:26;25.90;;;23.10;;
23222;SDS011;11780;13.904;100.620;2024-01-30T08:27:56;26.23;;;23.53;;
23222;SDS011;11780;13.904;100.620;2024-01-30T08:30:26;25.48;;;22.92;;
23222;SDS011;11780;13.904;100.620;2024-01-30T08:32:57;28.02;;;25.02;;
23222;SDS011;11780;13.904;100.620;2024-01-30T08:35:27;26.57;;;23.80;;
23222;SDS011;11780;13.904;100.620;2024-01-30T08:38:01;25.35;;;22.67;;
23222;SDS011;11780;13.904;100.620;2024-01-30T08:40:33;26.27;;;23.35;;
23222;SDS011;11780;13.904;100.620;2024-01-30T08:43:03;26.47;;;23.70;;
23222;SDS011;11780;13.904;100.620;2024-01-30T08:45:34;25.27;;;22.85;;
23222;SDS011;11780;13.904;100.620;2024-01-30T08:48:04;25.48;;;22.98;;
23222;SDS011;11780;13.904;100.620;2024-01-30T08:50:35;25.33;;;22.65;;
23222;SDS011;11780;13.904;100.620;2024-01-30T08:53:06;25.40;;;22.88;;
23222;SDS011;11780;13.904;100.620;2024-01-30T08:55:36;25.50;;;22.90;;
23222;SDS011;11780;13.904;100.620;2024-01-30T08:58:07;26.40;;;23.75;;
23222;SDS011;11780;13.904;100.620;2024-01-30T09:00:37;25.33;;;22.67;;
23222;SDS011;11780;13.904;100.620;2024-01-30T09:03:08;25.73;;;23.03;;
23222;SDS011;11780;13.904;100.620;2024-01-30T09:05:38;25.52;;;22.80;;
23222;SDS011;11780;13.904;100.620;2024-01-30T09:08:08;26.88;;;24.38;;
23222;SDS011;11780;13.904;100.620;2024-01-30T09:10:39;28.42;;;25.20;;
23222;SDS011;11780;13.904;100.620;2024-01-30T09:13:10;31.15;;;27.88;;
23222;SDS011;11780;13.904;100.620;2024-01-30T09:15:41;29.23;;;25.87;;
23222;SDS011;11780;13.904;100.620;2024-01-30T09:18:12;32.47;;;26.98;;
23222;SDS011;11780;13.904;100.620;2024-01-30T09:20:42;29.73;;;26.63;;
23222;SDS011;11780;13.904;100.620;2024-01-30T09:23:14;31.45;;;28.55;;
23222;SDS011;11780;13.904;100.620;2024-01-30T09:25:47;31.77;;;28.30;;
23222;SDS011;11780;13.904;100.620;2024-01-30T09:28:17;32.80;;;29.27;;
23222;SDS011;11780;13.904;100.620;2024-01-30T09:30:51;32.13;;;28.95;;
23222;SDS011;11780;13.904;100.620;2024-01-30T09:33:21;30.92;;;27.83;;
23222;SDS011;11780;13.904;100.620;2024-01-30T09:35:51;33.80;;;30.17;;
23222;SDS011;11780;13.904;100.620;2024-01-30T09:38:22;35.63;;;32.03;;
23222;SDS011;11780;13.904;100.620;2024-01-30T09:40:53;34.50;;;30.67;;
23222;SDS011;11780;13.904;100.620;2024-01-30T09:43:25;34.47;;;30.92;;
23222;SDS011;11780;13.904;100.620;2024-01-30T09:46:02;37.72;;;33.13;;
23222;SDS011;11780;13.904;100.620;2024-01-30T09:48:35;35.53;;;31.95;;
23222;SDS011;11780;13.904;100.620;2024-01-30T09:51:06;36.10;;;32.45;;
23222;SDS011;11780;13.904;100.620;2024-01-30T09:53:38;36.42;;;32.72;;
23222;SDS011;11780;13.904;100.620;2024-01-30T09:56:12;37.10;;;33.25;;
23222;SDS011;11780;13.904;100.620;2024-01-30T10:01:13;38.92;;;34.88;;
23222;SDS011;11780;13.904;100.620;2024-01-30T10:03:50;39.38;;;35.35;;
23222;SDS011;11780;13.904;100.620;2024-01-30T10:06:22;38.75;;;34.90;;
23222;SDS011;11780;13.904;100.620;2024-01-30T10:08:54;40.08;;;36.03;;
23222;SDS011;11780;13.904;100.620;2024-01-30T10:11:25;39.22;;;35.33;;
23222;SDS011;11780;13.904;100.620;2024-01-30T10:13:55;38.15;;;34.15;;
23222;SDS011;11780;13.904;100.620;2024-01-30T10:16:25;40.80;;;36.72;;
23222;SDS011;11780;13.904;100.620;2024-01-30T10:18:56;40.93;;;36.77;;
23222;SDS011;11780;13.904;100.620;2024-01-30T10:21:27;38.28;;;34.40;;
23222;SDS011;11780;13.904;100.620;2024-01-30T10:23:57;38.42;;;34.75;;
23222;SDS011;11780;13.904;100.620;2024-01-30T10:26:28;40.67;;;36.30;;
23222;SDS011;11780;13.904;100.620;2024-01-30T10:28:59;39.80;;;35.75;;
23222;SDS011;11780;13.904;100.620;2024-01-30T10:31:29;39.78;;;35.78;;
23222;SDS011;11780;13.904;100.620;2024-01-30T10:34:00;44.90;;;36.97;;
23222;SDS011;11780;13.904;100.620;2024-01-30T10:36:43;41.10;;;36.80;;
23222;SDS011;11780;13.904;100.620;2024-01-30T10:39:19;40.25;;;36.00;;
23222;SDS011;11780;13.904;100.620;2024-01-30T10:41:52;39.85;;;35.65;;
23222;SDS011;11780;13.904;100.620;2024-01-30T10:44:29;41.70;;;37.40;;
23222;SDS011;11780;13.904;100.620;2024-01-30T10:47:06;42.58;;;38.08;;
23222;SDS011;11780;13.904;100.620;2024-01-30T10:49:42;41.40;;;36.42;;
23222;SDS011;11780;13.904;100.620;2024-01-30T10:52:13;42.92;;;38.53;;
23222;SDS011;11780;13.904;100.620;2024-01-30T10:54:45;41.40;;;37.05;;
23222;SDS011;11780;13.904;100.620;2024-01-30T10:57:16;41.13;;;37.05;;
23222;SDS011;11780;13.904;100.620;2024-01-30T10:59:47;42.35;;;38.13;;
23222;SDS011;11780;13.904;100.620;2024-01-30T11:02:19;40.47;;;36.33;;
23222;SDS011;11780;13.904;100.620;2024-01-30T11:04:54;40.70;;;36.50;;
23222;SDS011;11780;13.904;100.620;2024-01-30T11:07:28;41.80;;;36.42;;
23222;SDS011;11780;13.904;100.620;2024-01-30T11:10:00;42.38;;;38.00;;
23222;SDS011;11780;13.904;100.620;2024-01-30T11:12:37;42.42;;;37.30;;
23222;SDS011;11780;13.904;100.620;2024-01-30T11:15:13;41.83;;;37.42;;
23222;SDS011;11780;13.904;100.620;2024-01-30T11:20:22;42.28;;;37.70;;
23222;SDS011;11780;13.904;100.620;2024-01-30T11:22:56;43.33;;;38.83;;
23222;SDS011;11780;13.904;100.620;2024-01-30T11:27:57;45.50;;;40.75;;
23222;SDS011;11780;13.904;100.620;2024-01-30T11:30:29;45.83;;;41.05;;
23222;SDS011;11780;13.904;100.620;2024-01-30T11:33:04;45.70;;;40.85;;
23222;SDS011;11780;13.904;100.620;2024-01-30T11:35:39;44.95;;;40.15;;
23222;SDS011;11780;13.904;100.620;2024-01-30T11:38:14;44.78;;;40.15;;
23222;SDS011;11780;13.904;100.620;2024-01-30T11:40:44;45.58;;;40.00;;
23222;SDS011;11780;13.904;100.620;2024-01-30T11:43:16;44.85;;;40.15;;
23222;SDS011;11780;13.904;100.620;2024-01-30T11:45:48;45.30;;;39.53;;
23222;SDS011;11780;13.904;100.620;2024-01-30T11:48:19;50.67;;;44.80;;
23222;SDS011;11780;13.904;100.620;2024-01-30T11:50:50;45.53;;;40.65;;
23222;SDS011;11780;13.904;100.620;2024-01-30T11:53:21;50.78;;;45.33;;
23222;SDS011;11780;13.904;100.620;2024-01-30T11:55:52;44.83;;;40.03;;
23222;SDS011;11780;13.904;100.620;2024-01-30T11:58:24;49.00;;;43.90;;
23222;SDS011;11780;13.904;100.620;2024-01-30T12:00:56;50.65;;;45.03;;
23222;SDS011;11780;13.904;100.620;2024-01-30T12:05:57;48.88;;;43.53;;
23222;SDS011;11780;13.904;100.620;2024-01-30T12:08:28;52.25;;;46.33;;
23222;SDS011;11780;13.904;100.620;2024-01-30T12:10:59;51.50;;;46.13;;
23222;SDS011;11780;13.904;100.620;2024-01-30T12:13:31;51.40;;;44.33;;
23222;SDS011;11780;13.904;100.620;2024-01-30T12:16:02;56.95;;;49.00;;
23222;SDS011;11780;13.904;100.620;2024-01-30T12:18:33;54.38;;;47.60;;
23222;SDS011;11780;13.904;100.620;2024-01-30T12:21:03;49.23;;;44.23;;
23222;SDS011;11780;13.904;100.620;2024-01-30T12:23:34;50.17;;;44.20;;
23222;SDS011;11780;13.904;100.620;2024-01-30T12:26:05;49.73;;;44.33;;
23222;SDS011;11780;13.904;100.620;2024-01-30T12:31:07;49.10;;;44.10;;
23222;SDS011;11780;13.904;100.620;2024-01-30T12:33:39;51.38;;;45.78;;
23222;SDS011;11780;13.904;100.620;2024-01-30T12:36:09;52.15;;;45.55;;
23222;SDS011;11780;13.904;100.620;2024-01-30T12:38:41;51.03;;;45.60;;
23222;SDS011;11780;13.904;100.620;2024-01-30T12:41:12;53.65;;;47.80;;
23222;SDS011;11780;13.904;100.620;2024-01-30T12:43:42;49.43;;;44.20;;
23222;SDS011;11780;13.904;100.620;2024-01-30T12:46:13;51.45;;;46.28;;
23222;SDS011;11780;13.904;100.620;2024-01-30T12:48:46;51.97;;;46.63;;
23222;SDS011;11780;13.904;100.620;2024-01-30T12:51:17;52.70;;;46.90;;
23222;SDS011;11780;13.904;100.620;2024-01-30T12:53:47;50.80;;;45.58;;
23222;SDS011;11780;13.904;100.620;2024-01-30T12:56:18;49.97;;;44.53;;
23222;SDS011;11780;13.904;100.620;2024-01-30T12:58:48;50.55;;;44.97;;
23222;SDS011;11780;13.904;100.620;2024-01-30T13:01:21;49.92;;;44.63;;
23222;SDS011;11780;13.904;100.620;2024-01-30T13:03:52;50.17;;;45.13;;
23222;SDS011;11780;13.904;100.620;2024-01-30T13:06:23;50.83;;;45.67;;
23222;SDS011;11780;13.904;100.620;2024-01-30T13:08:53;53.20;;;46.80;;
23222;SDS011;11780;13.904;100.620;2024-01-30T13:11:25;50.17;;;44.80;;
23222;SDS011;11780;13.904;100.620;2024-01-30T13:13:55;48.92;;;43.97;;
23222;SDS011;11780;13.904;100.620;2024-01-30T13:16:26;49.50;;;44.17;;
23222;SDS011;11780;13.904;100.620;2024-01-30T13:18:56;59.08;;;49.67;;
23222;SDS011;11780;13.904;100.620;2024-01-30T13:21:27;50.63;;;45.73;;
23222;SDS011;11780;13.904;100.620;2024-01-30T13:23:58;51.58;;;44.97;;
23222;SDS011;11780;13.904;100.620;2024-01-30T13:26:29;52.33;;;45.13;;
23222;SDS011;11780;13.904;100.620;2024-01-30T13:29:01;55.53;;;47.58;;
23222;SDS011;11780;13.904;100.620;2024-01-30T13:31:33;51.60;;;46.00;;
23222;SDS011;11780;13.904;100.620;2024-01-30T13:34:05;54.33;;;48.45;;
23222;SDS011;11780;13.904;100.620;2024-01-30T13:36:38;62.78;;;52.95;;
23222;SDS011;11780;13.904;100.620;2024-01-30T13:39:08;56.70;;;50.22;;
23222;SDS011;11780;13.904;100.620;2024-01-30T13:41:43;63.10;;;50.75;;
23222;SDS011;11780;13.904;100.620;2024-01-30T13:44:13;63.45;;;56.50;;
23222;SDS011;11780;13.904;100.620;2024-01-30T13:46:46;57.00;;;50.92;;
23222;SDS011;11780;13.904;100.620;2024-01-30T13:49:16;58.58;;;52.45;;
23222;SDS011;11780;13.904;100.620;2024-01-30T13:51:47;61.47;;;54.95;;
23222;SDS011;11780;13.904;100.620;2024-01-30T13:54:17;58.77;;;52.53;;
23222;SDS011;11780;13.904;100.620;2024-01-30T13:56:48;74.20;;;63.92;;
23222;SDS011;11780;13.904;100.620;2024-01-30T13:59:18;70.30;;;63.03;;
23222;SDS011;11780;13.904;100.620;2024-01-30T14:01:53;74.63;;;66.65;;
23222;SDS011;11780;13.904;100.620;2024-01-30T14:04:24;67.82;;;60.45;;
23222;SDS011;11780;13.904;100.620;2024-01-30T14:06:54;67.60;;;60.47;;
23222;SDS011;11780;13.904;100.620;2024-01-30T14:09:31;65.65;;;58.72;;
23222;SDS011;11780;13.904;100.620;2024-01-30T14:12:02;70.53;;;59.25;;
23222;SDS011;11780;13.904;100.620;2024-01-30T14:14:32;64.53;;;57.60;;
23222;SDS011;11780;13.904;100.620;2024-01-30T14:17:03;66.37;;;59.30;;
23222;SDS011;11780;13.904;100.620;2024-01-30T14:19:36;64.68;;;57.97;;
23222;SDS011;11780;13.904;100.620;2024-01-30T14:22:06;64.70;;;58.00;;
23222;SDS011;11780;13.904;100.620;2024-01-30T14:24:38;64.68;;;57.63;;
23222;SDS011;11780;13.904;100.620;2024-01-30T14:27:09;65.30;;;57.38;;
23222;SDS011;11780;13.904;100.620;2024-01-30T14:29:40;61.42;;;54.97;;
23222;SDS011;11780;13.904;100.620;2024-01-30T14:32:12;58.70;;;52.20;;
23222;SDS011;11780;13.904;100.620;2024-01-30T14:34:43;59.90;;;51.30;;
23222;SDS011;11780;13.904;100.620;2024-01-30T14:37:13;57.43;;;51.57;;
23222;SDS011;11780;13.904;100.620;2024-01-30T14:39:44;57.20;;;51.25;;
23222;SDS011;11780;13.904;100.620;2024-01-30T14:42:15;56.83;;;50.70;;